sensor_id;sensor_type;location;lat;lon;timestamp;temperature;humidity
6174;DHT22;3120;48.796;9.796;2023-03-21T00:01:18;9.60;99.90
6174;DHT22;3120;48.796;9.796;2023-03-21T00:03:44;8.60;99.90
6174;DHT22;3120;48.796;9.796;2023-03-21T00:06:12;8.60;99.90
6174;DHT22;3120;48.796;9.796;2023-03-21T00:08:38;8.60;99.90
6174;DHT22;3120;48.796;9.796;2023-03-21T00:11:07;8.60;99.90
6174;DHT22;3120;48.796;9.796;2023-03-21T00:13:34;8.50;99.90
6174;DHT22;3120;48.796;9.796;2023-03-21T00:16:11;8.50;99.90
6174;DHT22;3120;48.796;9.796;2023-03-21T00:18:47;8.50;99.90
6174;DHT22;3120;48.796;9.796;2023-03-21T00:21:19;8.50;99.90
6174;DHT22;3120;48.796;9.796;2023-03-21T00:23:45;8.50;99.90
6174;DHT22;3120;48.796;9.796;2023-03-21T00:26:13;8.40;99.90
6174;DHT22;3120;48.796;9.796;2023-03-21T00:28:40;8.40;99.90
6174;DHT22;3120;48.796;9.796;2023-03-21T00:31:06;8.30;99.90
6174;DHT22;3120;48.796;9.796;2023-03-21T00:33:33;8.30;99.90
6174;DHT22;3120;48.796;9.796;2023-03-21T00:35:59;8.20;99.90
6174;DHT22;3120;48.796;9.796;2023-03-21T00:38:24;8.20;99.90
6174;DHT22;3120;48.796;9.796;2023-03-21T00:40:50;8.10;99.90
6174;DHT22;3120;48.796;9.796;2023-03-21T00:43:16;8.00;99.90
6174;DHT22;3120;48.796;9.796;2023-03-21T00:45:44;8.00;99.90
6174;DHT22;3120;48.796;9.796;2023-03-21T00:48:11;8.00;99.90
6174;DHT22;3120;48.796;9.796;2023-03-21T00:50:38;7.90;99.90
6174;DHT22;3120;48.796;9.796;2023-03-21T00:53:04;7.90;99.90
6174;DHT22;3120;48.796;9.796;2023-03-21T00:55:30;7.90;99.90
6174;DHT22;3120;48.796;9.796;2023-03-21T00:57:56;7.90;99.90
6174;DHT22;3120;48.796;9.796;2023-03-21T01:00:27;7.90;99.90
6174;DHT22;3120;48.796;9.796;2023-03-21T01:02:52;7.90;99.90
6174;DHT22;3120;48.796;9.796;2023-03-21T01:05:29;8.90;99.90
6174;DHT22;3120;48.796;9.796;2023-03-21T01:08:15;9.20;99.90
6174;DHT22;3120;48.796;9.796;2023-03-21T01:10:45;8.00;99.90
6174;DHT22;3120;48.796;9.796;2023-03-21T01:13:13;8.00;99.90
6174;DHT22;3120;48.796;9.796;2023-03-21T01:15:45;8.00;99.90
6174;DHT22;3120;48.796;9.796;2023-03-21T01:18:11;8.00;99.90
6174;DHT22;3120;48.796;9.796;2023-03-21T01:23:41;8.00;99.90
6174;DHT22;3120;48.796;9.796;2023-03-21T01:26:08;8.00;99.90
6174;DHT22;3120;48.796;9.796;2023-03-21T01:28:35;8.00;99.90
6174;DHT22;3120;48.796;9.796;2023-03-21T01:31:02;8.00;99.90
6174;DHT22;3120;48.796;9.796;2023-03-21T01:33:37;8.00;99.90
6174;DHT22;3120;48.796;9.796;2023-03-21T01:36:04;9.30;99.90
6174;DHT22;3120;48.796;9.796;2023-03-21T01:38:30;7.90;99.90
6174;DHT22;3120;48.796;9.796;2023-03-21T01:40:57;7.90;99.90
6174;DHT22;3120;48.796;9.796;2023-03-21T01:43:30;8.80;99.90
6174;DHT22;3120;48.796;9.796;2023-03-21T01:48:55;7.90;99.90
6174;DHT22;3120;48.796;9.796;2023-03-21T01:51:23;7.80;99.90
6174;DHT22;3120;48.796;9.796;2023-03-21T01:53:49;7.90;99.90
6174;DHT22;3120;48.796;9.796;2023-03-21T01:56:23;7.90;99.90
6174;DHT22;3120;48.796;9.796;2023-03-21T01:58:52;7.90;99.90
6174;DHT22;3120;48.796;9.796;2023-03-21T02:01:22;7.90;99.90
6174;DHT22;3120;48.796;9.796;2023-03-21T02:03:48;7.90;99.90
6174;DHT22;3120;48.796;9.796;2023-03-21T02:06:29;7.90;99.90
6174;DHT22;3120;48.796;9.796;2023-03-21T02:08:59;7.90;99.90
6174;DHT22;3120;48.796;9.796;2023-03-21T02:11:27;9.30;99.90
6174;DHT22;3120;48.796;9.796;2023-03-21T02:13:54;7.90;99.90
6174;DHT22;3120;48.796;9.796;2023-03-21T02:27:55;7.90;99.90
6174;DHT22;3120;48.796;9.796;2023-03-21T02:33:42;7.90;99.90
6174;DHT22;3120;48.796;9.796;2023-03-21T02:39:07;8.70;99.90
6174;DHT22;3120;48.796;9.796;2023-03-21T02:41:47;8.00;99.90
6174;DHT22;3120;48.796;9.796;2023-03-21T02:46:50;8.00;99.90
6174;DHT22;3120;48.796;9.796;2023-03-21T02:51:49;8.30;99.90
6174;DHT22;3120;48.796;9.796;2023-03-21T02:54:18;8.00;99.90
6174;DHT22;3120;48.796;9.796;2023-03-21T02:56:45;8.00;99.90
6174;DHT22;3120;48.796;9.796;2023-03-21T02:59:13;8.00;99.90
6174;DHT22;3120;48.796;9.796;2023-03-21T03:01:39;8.00;99.90
6174;DHT22;3120;48.796;9.796;2023-03-21T03:04:19;8.00;99.90
6174;DHT22;3120;48.796;9.796;2023-03-21T03:09:29;8.10;99.90
6174;DHT22;3120;48.796;9.796;2023-03-21T03:12:06;8.00;99.90
6174;DHT22;3120;48.796;9.796;2023-03-21T03:23:03;8.10;99.90
6174;DHT22;3120;48.796;9.796;2023-03-21T03:25:46;8.10;99.90
6174;DHT22;3120;48.796;9.796;2023-03-21T03:28:15;8.10;99.90
6174;DHT22;3120;48.796;9.796;2023-03-21T03:30:42;8.10;99.90
6174;DHT22;3120;48.796;9.796;2023-03-21T03:33:09;8.10;99.90
6174;DHT22;3120;48.796;9.796;2023-03-21T03:35:44;8.00;99.90
6174;DHT22;3120;48.796;9.796;2023-03-21T03:38:11;8.00;99.90
6174;DHT22;3120;48.796;9.796;2023-03-21T03:40:47;8.10;99.90
6174;DHT22;3120;48.796;9.796;2023-03-21T03:43:28;8.10;99.90
6174;DHT22;3120;48.796;9.796;2023-03-21T03:46:04;8.10;99.90
6174;DHT22;3120;48.796;9.796;2023-03-21T03:48:49;8.10;99.90
6174;DHT22;3120;48.796;9.796;2023-03-21T03:51:28;8.10;99.90
6174;DHT22;3120;48.796;9.796;2023-03-21T03:54:06;8.10;99.90
6174;DHT22;3120;48.796;9.796;2023-03-21T03:56:33;8.10;99.90
6174;DHT22;3120;48.796;9.796;2023-03-21T03:59:01;8.10;99.90
6174;DHT22;3120;48.796;9.796;2023-03-21T04:01:28;8.10;99.90
6174;DHT22;3120;48.796;9.796;2023-03-21T04:03:54;8.10;99.90
6174;DHT22;3120;48.796;9.796;2023-03-21T04:06:20;8.00;99.90
6174;DHT22;3120;48.796;9.796;2023-03-21T04:08:46;8.00;99.90
6174;DHT22;3120;48.796;9.796;2023-03-21T04:11:13;8.00;99.90
6174;DHT22;3120;48.796;9.796;2023-03-21T04:13:40;8.00;99.90
6174;DHT22;3120;48.796;9.796;2023-03-21T04:16:06;8.00;99.90
6174;DHT22;3120;48.796;9.796;2023-03-21T04:18:33;8.00;99.90
6174;DHT22;3120;48.796;9.796;2023-03-21T04:20:58;8.00;99.90
6174;DHT22;3120;48.796;9.796;2023-03-21T04:23:24;8.00;99.90
6174;DHT22;3120;48.796;9.796;2023-03-21T04:25:50;8.00;99.90
6174;DHT22;3120;48.796;9.796;2023-03-21T04:28:16;8.80;99.90
6174;DHT22;3120;48.796;9.796;2023-03-21T04:30:42;8.00;99.90
6174;DHT22;3120;48.796;9.796;2023-03-21T04:33:31;8.00;99.90
6174;DHT22;3120;48.796;9.796;2023-03-21T04:36:03;8.00;99.90
6174;DHT22;3120;48.796;9.796;2023-03-21T04:38:31;8.00;99.90
6174;DHT22;3120;48.796;9.796;2023-03-21T04:40:58;8.00;99.90
6174;DHT22;3120;48.796;9.796;2023-03-21T04:43:25;8.00;99.90
6174;DHT22;3120;48.796;9.796;2023-03-21T04:45:51;8.00;99.90
6174;DHT22;3120;48.796;9.796;2023-03-21T04:48:19;8.00;99.90
6174;DHT22;3120;48.796;9.796;2023-03-21T04:50:49;8.00;99.90
6174;DHT22;3120;48.796;9.796;2023-03-21T04:53:14;9.00;99.90
6174;DHT22;3120;48.796;9.796;2023-03-21T04:55:40;8.00;99.90
6174;DHT22;3120;48.796;9.796;2023-03-21T04:58:06;8.00;99.90
6174;DHT22;3120;48.796;9.796;2023-03-21T05:00:31;8.00;99.90
6174;DHT22;3120;48.796;9.796;2023-03-21T05:03:03;8.10;99.90
6174;DHT22;3120;48.796;9.796;2023-03-21T05:05:29;8.10;99.90
6174;DHT22;3120;48.796;9.796;2023-03-21T05:07:56;8.10;99.90
6174;DHT22;3120;48.796;9.796;2023-03-21T05:10:21;8.10;99.90
6174;DHT22;3120;48.796;9.796;2023-03-21T05:12:47;8.20;99.90
6174;DHT22;3120;48.796;9.796;2023-03-21T05:18:17;8.10;99.90
6174;DHT22;3120;48.796;9.796;2023-03-21T05:20:50;8.10;99.90
6174;DHT22;3120;48.796;9.796;2023-03-21T05:23:22;8.10;99.90
6174;DHT22;3120;48.796;9.796;2023-03-21T05:25:48;8.10;99.90
6174;DHT22;3120;48.796;9.796;2023-03-21T05:28:14;8.00;99.90
6174;DHT22;3120;48.796;9.796;2023-03-21T05:30:44;7.90;99.90
6174;DHT22;3120;48.796;9.796;2023-03-21T05:33:11;8.00;99.90
6174;DHT22;3120;48.796;9.796;2023-03-21T05:35:37;8.00;99.90
6174;DHT22;3120;48.796;9.796;2023-03-21T05:38:03;8.00;99.90
6174;DHT22;3120;48.796;9.796;2023-03-21T05:40:29;8.10;99.90
6174;DHT22;3120;48.796;9.796;2023-03-21T05:42:54;8.10;99.90
6174;DHT22;3120;48.796;9.796;2023-03-21T05:45:20;8.10;99.90
6174;DHT22;3120;48.796;9.796;2023-03-21T05:47:46;8.10;99.90
6174;DHT22;3120;48.796;9.796;2023-03-21T05:50:11;8.10;99.90
6174;DHT22;3120;48.796;9.796;2023-03-21T05:52:42;8.10;99.90
6174;DHT22;3120;48.796;9.796;2023-03-21T05:55:08;8.10;99.90
6174;DHT22;3120;48.796;9.796;2023-03-21T05:57:34;8.20;99.90
6174;DHT22;3120;48.796;9.796;2023-03-21T06:00:04;8.20;99.90
6174;DHT22;3120;48.796;9.796;2023-03-21T06:02:30;8.20;99.90
6174;DHT22;3120;48.796;9.796;2023-03-21T06:04:56;8.20;99.90
6174;DHT22;3120;48.796;9.796;2023-03-21T06:07:21;8.30;99.90
6174;DHT22;3120;48.796;9.796;2023-03-21T06:09:47;8.30;99.90
6174;DHT22;3120;48.796;9.796;2023-03-21T06:12:13;8.30;99.90
6174;DHT22;3120;48.796;9.796;2023-03-21T06:14:39;8.40;99.90
6174;DHT22;3120;48.796;9.796;2023-03-21T06:17:04;8.60;99.90
6174;DHT22;3120;48.796;9.796;2023-03-21T06:19:30;9.50;99.90
6174;DHT22;3120;48.796;9.796;2023-03-21T06:21:56;8.50;99.90
6174;DHT22;3120;48.796;9.796;2023-03-21T06:24:21;8.70;99.90
6174;DHT22;3120;48.796;9.796;2023-03-21T06:26:47;8.60;99.90
6174;DHT22;3120;48.796;9.796;2023-03-21T06:29:13;8.60;99.90
6174;DHT22;3120;48.796;9.796;2023-03-21T06:31:38;8.60;99.90
6174;DHT22;3120;48.796;9.796;2023-03-21T06:34:05;8.60;99.90
6174;DHT22;3120;48.796;9.796;2023-03-21T06:36:31;8.70;99.90
6174;DHT22;3120;48.796;9.796;2023-03-21T06:38:56;8.70;99.90
6174;DHT22;3120;48.796;9.796;2023-03-21T06:41:22;8.80;99.90
6174;DHT22;3120;48.796;9.796;2023-03-21T06:43:48;8.90;99.90
6174;DHT22;3120;48.796;9.796;2023-03-21T06:46:14;8.80;99.90
6174;DHT22;3120;48.796;9.796;2023-03-21T06:48:39;9.10;99.90
6174;DHT22;3120;48.796;9.796;2023-03-21T06:51:10;9.00;99.90
6174;DHT22;3120;48.796;9.796;2023-03-21T06:53:36;9.10;99.90
6174;DHT22;3120;48.796;9.796;2023-03-21T06:56:12;9.20;99.90
6174;DHT22;3120;48.796;9.796;2023-03-21T06:58:39;9.10;99.90
6174;DHT22;3120;48.796;9.796;2023-03-21T07:01:05;9.20;99.90
6174;DHT22;3120;48.796;9.796;2023-03-21T07:03:31;9.30;99.90
6174;DHT22;3120;48.796;9.796;2023-03-21T07:06:02;9.50;99.90
6174;DHT22;3120;48.796;9.796;2023-03-21T07:08:28;9.50;99.90
6174;DHT22;3120;48.796;9.796;2023-03-21T07:13:59;9.70;99.90
6174;DHT22;3120;48.796;9.796;2023-03-21T07:16:24;9.70;99.90
6174;DHT22;3120;48.796;9.796;2023-03-21T07:18:50;9.70;99.90
6174;DHT22;3120;48.796;9.796;2023-03-21T07:21:17;9.80;99.90
6174;DHT22;3120;48.796;9.796;2023-03-21T07:23:43;10.00;99.90
6174;DHT22;3120;48.796;9.796;2023-03-21T07:26:09;10.10;99.90
6174;DHT22;3120;48.796;9.796;2023-03-21T07:28:35;10.00;99.90
6174;DHT22;3120;48.796;9.796;2023-03-21T07:31:04;10.10;99.90
6174;DHT22;3120;48.796;9.796;2023-03-21T07:33:31;10.20;99.90
6174;DHT22;3120;48.796;9.796;2023-03-21T07:35:57;10.40;74.50
6174;DHT22;3120;48.796;9.796;2023-03-21T07:38:25;10.50;99.90
6174;DHT22;3120;48.796;9.796;2023-03-21T07:40:51;10.60;66.30
6174;DHT22;3120;48.796;9.796;2023-03-21T07:43:17;10.60;1.00
6174;DHT22;3120;48.796;9.796;2023-03-21T07:45:43;10.70;1.00
6174;DHT22;3120;48.796;9.796;2023-03-21T07:48:09;11.00;1.00
6174;DHT22;3120;48.796;9.796;2023-03-21T07:50:37;10.90;1.00
6174;DHT22;3120;48.796;9.796;2023-03-21T07:53:03;10.90;1.00
6174;DHT22;3120;48.796;9.796;2023-03-21T07:55:29;11.00;1.00
6174;DHT22;3120;48.796;9.796;2023-03-21T07:57:54;11.00;1.00
6174;DHT22;3120;48.796;9.796;2023-03-21T08:00:20;11.20;1.00
6174;DHT22;3120;48.796;9.796;2023-03-21T08:02:53;11.30;1.00
6174;DHT22;3120;48.796;9.796;2023-03-21T08:05:21;11.40;1.00
6174;DHT22;3120;48.796;9.796;2023-03-21T08:07:46;11.60;1.00
6174;DHT22;3120;48.796;9.796;2023-03-21T08:10:12;11.70;1.00
6174;DHT22;3120;48.796;9.796;2023-03-21T08:12:38;11.90;99.90
6174;DHT22;3120;48.796;9.796;2023-03-21T08:15:14;12.90;1.00
6174;DHT22;3120;48.796;9.796;2023-03-21T08:17:40;12.50;99.90
6174;DHT22;3120;48.796;9.796;2023-03-21T08:20:13;12.60;99.90
6174;DHT22;3120;48.796;9.796;2023-03-21T08:22:40;12.60;99.90
6174;DHT22;3120;48.796;9.796;2023-03-21T08:25:07;12.60;1.00
6174;DHT22;3120;48.796;9.796;2023-03-21T08:27:34;12.70;99.90
6174;DHT22;3120;48.796;9.796;2023-03-21T08:30:00;13.20;1.00
6174;DHT22;3120;48.796;9.796;2023-03-21T08:32:26;12.80;1.00
6174;DHT22;3120;48.796;9.796;2023-03-21T08:35:00;13.60;1.00
6174;DHT22;3120;48.796;9.796;2023-03-21T08:40:49;13.00;1.00
6174;DHT22;3120;48.796;9.796;2023-03-21T08:43:15;13.30;1.00
6174;DHT22;3120;48.796;9.796;2023-03-21T08:45:40;13.50;1.00
6174;DHT22;3120;48.796;9.796;2023-03-21T08:48:06;13.70;1.00
6174;DHT22;3120;48.796;9.796;2023-03-21T08:50:31;13.70;1.00
6174;DHT22;3120;48.796;9.796;2023-03-21T08:52:57;13.40;99.90
6174;DHT22;3120;48.796;9.796;2023-03-21T08:55:23;14.10;1.00
6174;DHT22;3120;48.796;9.796;2023-03-21T08:57:48;14.40;99.90
6174;DHT22;3120;48.796;9.796;2023-03-21T09:00:16;15.00;83.10
6174;DHT22;3120;48.796;9.796;2023-03-21T09:02:44;15.70;1.00
6174;DHT22;3120;48.796;9.796;2023-03-21T09:05:11;16.30;99.90
6174;DHT22;3120;48.796;9.796;2023-03-21T09:07:38;16.80;99.90
6174;DHT22;3120;48.796;9.796;2023-03-21T09:10:05;16.70;99.90
6174;DHT22;3120;48.796;9.796;2023-03-21T09:12:32;17.10;99.90
6174;DHT22;3120;48.796;9.796;2023-03-21T09:14:58;17.20;99.90
6174;DHT22;3120;48.796;9.796;2023-03-21T09:17:27;17.30;99.90
6174;DHT22;3120;48.796;9.796;2023-03-21T09:19:53;17.70;99.90
6174;DHT22;3120;48.796;9.796;2023-03-21T09:22:19;17.60;99.90
6174;DHT22;3120;48.796;9.796;2023-03-21T09:24:46;17.40;99.90
6174;DHT22;3120;48.796;9.796;2023-03-21T09:27:14;17.50;99.90
6174;DHT22;3120;48.796;9.796;2023-03-21T09:29:43;16.80;99.90
6174;DHT22;3120;48.796;9.796;2023-03-21T09:32:09;17.50;99.90
6174;DHT22;3120;48.796;9.796;2023-03-21T09:34:37;17.70;99.90
6174;DHT22;3120;48.796;9.796;2023-03-21T09:37:06;17.10;99.90
6174;DHT22;3120;48.796;9.796;2023-03-21T09:46:21;17.50;99.90
6174;DHT22;3120;48.796;9.796;2023-03-21T09:49:03;16.70;99.90
6174;DHT22;3120;48.796;9.796;2023-03-21T09:52:12;16.50;99.90
6174;DHT22;3120;48.796;9.796;2023-03-21T09:54:42;16.40;99.90
6174;DHT22;3120;48.796;9.796;2023-03-21T09:57:29;16.00;99.90
6174;DHT22;3120;48.796;9.796;2023-03-21T09:59:58;15.70;99.90
6174;DHT22;3120;48.796;9.796;2023-03-21T10:02:47;15.70;99.90
6174;DHT22;3120;48.796;9.796;2023-03-21T10:05:25;15.60;99.90
6174;DHT22;3120;48.796;9.796;2023-03-21T10:08:00;15.40;99.90
6174;DHT22;3120;48.796;9.796;2023-03-21T10:10:33;15.20;99.90
6174;DHT22;3120;48.796;9.796;2023-03-21T10:13:01;15.30;99.90
6174;DHT22;3120;48.796;9.796;2023-03-21T10:15:28;15.40;99.90
6174;DHT22;3120;48.796;9.796;2023-03-21T10:18:01;15.30;99.90
6174;DHT22;3120;48.796;9.796;2023-03-21T10:20:31;15.40;99.90
6174;DHT22;3120;48.796;9.796;2023-03-21T10:22:59;15.30;99.90
6174;DHT22;3120;48.796;9.796;2023-03-21T10:25:33;15.30;99.90
6174;DHT22;3120;48.796;9.796;2023-03-21T10:28:01;15.20;99.90
6174;DHT22;3120;48.796;9.796;2023-03-21T10:33:21;15.50;99.90
6174;DHT22;3120;48.796;9.796;2023-03-21T10:35:56;15.30;99.90
6174;DHT22;3120;48.796;9.796;2023-03-21T10:38:24;15.40;99.90
6174;DHT22;3120;48.796;9.796;2023-03-21T10:44:12;15.60;99.90
6174;DHT22;3120;48.796;9.796;2023-03-21T10:46:55;15.80;99.90
6174;DHT22;3120;48.796;9.796;2023-03-21T10:49:21;15.70;99.90
6174;DHT22;3120;48.796;9.796;2023-03-21T10:52:17;15.80;99.90
6174;DHT22;3120;48.796;9.796;2023-03-21T10:54:44;15.80;99.90
6174;DHT22;3120;48.796;9.796;2023-03-21T10:57:20;15.90;99.90
6174;DHT22;3120;48.796;9.796;2023-03-21T10:59:54;16.10;99.90
6174;DHT22;3120;48.796;9.796;2023-03-21T11:06:14;16.10;99.90
6174;DHT22;3120;48.796;9.796;2023-03-21T11:08:46;16.20;99.90
6174;DHT22;3120;48.796;9.796;2023-03-21T11:11:26;16.80;99.90
6174;DHT22;3120;48.796;9.796;2023-03-21T11:14:04;16.60;99.90
6174;DHT22;3120;48.796;9.796;2023-03-21T11:16:38;16.60;99.90
6174;DHT22;3120;48.796;9.796;2023-03-21T11:19:35;17.20;99.90
6174;DHT22;3120;48.796;9.796;2023-03-21T11:22:07;16.30;99.90
6174;DHT22;3120;48.796;9.796;2023-03-21T11:24:34;16.10;99.90
6174;DHT22;3120;48.796;9.796;2023-03-21T11:27:05;16.60;99.90
6174;DHT22;3120;48.796;9.796;2023-03-21T11:29:39;16.50;99.90
6174;DHT22;3120;48.796;9.796;2023-03-21T11:32:35;16.80;99.90
6174;DHT22;3120;48.796;9.796;2023-03-21T11:35:14;16.90;99.90
6174;DHT22;3120;48.796;9.796;2023-03-21T11:37:43;16.90;99.90
6174;DHT22;3120;48.796;9.796;2023-03-21T11:40:29;16.90;99.90
6174;DHT22;3120;48.796;9.796;2023-03-21T11:43:00;17.10;99.90
6174;DHT22;3120;48.796;9.796;2023-03-21T11:45:32;17.10;99.90
6174;DHT22;3120;48.796;9.796;2023-03-21T11:48:00;17.10;99.90
6174;DHT22;3120;48.796;9.796;2023-03-21T11:50:36;17.00;99.90
6174;DHT22;3120;48.796;9.796;2023-03-21T11:53:05;17.20;99.90
6174;DHT22;3120;48.796;9.796;2023-03-21T11:55:57;17.10;99.90
6174;DHT22;3120;48.796;9.796;2023-03-21T12:06:55;17.30;99.90
6174;DHT22;3120;48.796;9.796;2023-03-21T12:12:59;16.90;99.90
6174;DHT22;3120;48.796;9.796;2023-03-21T12:15:29;17.00;99.90
6174;DHT22;3120;48.796;9.796;2023-03-21T12:18:29;16.90;99.90
6174;DHT22;3120;48.796;9.796;2023-03-21T12:43:11;17.10;99.90
6174;DHT22;3120;48.796;9.796;2023-03-21T12:45:46;17.10;99.90
6174;DHT22;3120;48.796;9.796;2023-03-21T12:48:35;17.20;99.90
6174;DHT22;3120;48.796;9.796;2023-03-21T12:51:06;17.10;99.90
6174;DHT22;3120;48.796;9.796;2023-03-21T12:56:12;17.10;99.90
6174;DHT22;3120;48.796;9.796;2023-03-21T12:58:53;17.10;99.90
6174;DHT22;3120;48.796;9.796;2023-03-21T13:01:21;17.10;99.90
6174;DHT22;3120;48.796;9.796;2023-03-21T13:04:01;16.80;99.90
6174;DHT22;3120;48.796;9.796;2023-03-21T13:06:29;16.90;99.90
6174;DHT22;3120;48.796;9.796;2023-03-21T13:08:57;17.30;99.90
6174;DHT22;3120;48.796;9.796;2023-03-21T13:11:52;17.10;99.90
6174;DHT22;3120;48.796;9.796;2023-03-21T13:14:24;17.00;99.90
6174;DHT22;3120;48.796;9.796;2023-03-21T13:17:04;17.20;99.90
6174;DHT22;3120;48.796;9.796;2023-03-21T13:19:39;16.90;99.90
6174;DHT22;3120;48.796;9.796;2023-03-21T13:24:49;16.80;95.80
6174;DHT22;3120;48.796;9.796;2023-03-21T13:27:36;17.60;97.20
6174;DHT22;3120;48.796;9.796;2023-03-21T13:32:40;16.70;99.90
6174;DHT22;3120;48.796;9.796;2023-03-21T13:35:45;16.70;99.90
6174;DHT22;3120;48.796;9.796;2023-03-21T13:38:21;17.00;99.90
6174;DHT22;3120;48.796;9.796;2023-03-21T13:40:50;17.30;99.90
6174;DHT22;3120;48.796;9.796;2023-03-21T13:43:42;16.90;99.90
6174;DHT22;3120;48.796;9.796;2023-03-21T13:51:45;17.00;99.90
6174;DHT22;3120;48.796;9.796;2023-03-21T13:54:21;17.10;99.90
6174;DHT22;3120;48.796;9.796;2023-03-21T13:56:51;17.00;96.00
6174;DHT22;3120;48.796;9.796;2023-03-21T14:02:26;17.00;99.90
6174;DHT22;3120;48.796;9.796;2023-03-21T14:04:56;16.90;95.80
6174;DHT22;3120;48.796;9.796;2023-03-21T14:07:26;17.00;94.70
6174;DHT22;3120;48.796;9.796;2023-03-21T14:09:56;16.90;96.50
6174;DHT22;3120;48.796;9.796;2023-03-21T14:12:33;17.00;99.90
6174;DHT22;3120;48.796;9.796;2023-03-21T14:15:12;16.80;99.90
6174;DHT22;3120;48.796;9.796;2023-03-21T14:21:04;16.50;99.90
6174;DHT22;3120;48.796;9.796;2023-03-21T14:23:30;16.70;99.90
6174;DHT22;3120;48.796;9.796;2023-03-21T14:25:56;16.70;99.90
6174;DHT22;3120;48.796;9.796;2023-03-21T14:28:26;17.60;99.90
6174;DHT22;3120;48.796;9.796;2023-03-21T14:30:55;16.70;99.90
6174;DHT22;3120;48.796;9.796;2023-03-21T14:33:39;17.40;99.90
6174;DHT22;3120;48.796;9.796;2023-03-21T14:36:11;16.60;99.90
6174;DHT22;3120;48.796;9.796;2023-03-21T14:38:39;16.60;99.90
6174;DHT22;3120;48.796;9.796;2023-03-21T14:41:05;16.60;99.90
6174;DHT22;3120;48.796;9.796;2023-03-21T14:43:43;16.60;99.90
6174;DHT22;3120;48.796;9.796;2023-03-21T14:46:11;16.70;99.90
6174;DHT22;3120;48.796;9.796;2023-03-21T14:48:37;17.40;99.90
6174;DHT22;3120;48.796;9.796;2023-03-21T14:51:05;16.60;99.90
6174;DHT22;3120;48.796;9.796;2023-03-21T14:53:40;16.50;99.90
6174;DHT22;3120;48.796;9.796;2023-03-21T14:56:18;16.60;99.90
6174;DHT22;3120;48.796;9.796;2023-03-21T14:58:47;16.40;99.90
6174;DHT22;3120;48.796;9.796;2023-03-21T15:01:16;16.50;99.90
6174;DHT22;3120;48.796;9.796;2023-03-21T15:03:49;16.40;99.90
6174;DHT22;3120;48.796;9.796;2023-03-21T15:06:15;16.50;99.90
6174;DHT22;3120;48.796;9.796;2023-03-21T15:09:00;16.50;99.90
6174;DHT22;3120;48.796;9.796;2023-03-21T15:11:33;16.40;99.90
6174;DHT22;3120;48.796;9.796;2023-03-21T15:14:02;16.50;99.90
6174;DHT22;3120;48.796;9.796;2023-03-21T15:16:29;16.50;99.90
6174;DHT22;3120;48.796;9.796;2023-03-21T15:18:55;16.50;99.90
6174;DHT22;3120;48.796;9.796;2023-03-21T15:21:26;16.50;99.90
6174;DHT22;3120;48.796;9.796;2023-03-21T15:26:46;16.60;99.90
6174;DHT22;3120;48.796;9.796;2023-03-21T15:29:13;16.70;99.90
6174;DHT22;3120;48.796;9.796;2023-03-21T15:31:39;16.90;99.90
6174;DHT22;3120;48.796;9.796;2023-03-21T15:34:06;16.90;99.90
6174;DHT22;3120;48.796;9.796;2023-03-21T15:36:46;17.10;99.90
6174;DHT22;3120;48.796;9.796;2023-03-21T15:39:15;16.60;99.90
6174;DHT22;3120;48.796;9.796;2023-03-21T15:41:41;16.70;99.90
6174;DHT22;3120;48.796;9.796;2023-03-21T15:44:21;16.80;99.90
6174;DHT22;3120;48.796;9.796;2023-03-21T15:46:51;16.40;99.90
6174;DHT22;3120;48.796;9.796;2023-03-21T15:49:31;16.50;99.90
6174;DHT22;3120;48.796;9.796;2023-03-21T15:52:10;16.50;99.90
6174;DHT22;3120;48.796;9.796;2023-03-21T15:54:48;16.40;99.90
6174;DHT22;3120;48.796;9.796;2023-03-21T15:57:24;16.40;99.90
6174;DHT22;3120;48.796;9.796;2023-03-21T15:59:58;16.40;99.90
6174;DHT22;3120;48.796;9.796;2023-03-21T16:06:05;16.40;99.90
6174;DHT22;3120;48.796;9.796;2023-03-21T16:08:34;16.20;99.90
6174;DHT22;3120;48.796;9.796;2023-03-21T16:13:46;16.10;99.90
6174;DHT22;3120;48.796;9.796;2023-03-21T16:16:26;16.20;99.90
6174;DHT22;3120;48.796;9.796;2023-03-21T16:18:53;16.30;99.90
6174;DHT22;3120;48.796;9.796;2023-03-21T16:21:21;16.40;99.90
6174;DHT22;3120;48.796;9.796;2023-03-21T16:23:48;16.20;99.90
6174;DHT22;3120;48.796;9.796;2023-03-21T16:26:25;16.20;99.90
6174;DHT22;3120;48.796;9.796;2023-03-21T16:28:52;16.20;99.90
6174;DHT22;3120;48.796;9.796;2023-03-21T16:31:19;17.60;99.90
6174;DHT22;3120;48.796;9.796;2023-03-21T16:33:46;16.10;99.90
6174;DHT22;3120;48.796;9.796;2023-03-21T16:36:19;15.90;99.90
6174;DHT22;3120;48.796;9.796;2023-03-21T16:38:46;16.60;99.90
6174;DHT22;3120;48.796;9.796;2023-03-21T16:41:14;16.20;99.90
6174;DHT22;3120;48.796;9.796;2023-03-21T16:43:40;15.60;99.90
6174;DHT22;3120;48.796;9.796;2023-03-21T16:46:15;15.50;99.90
6174;DHT22;3120;48.796;9.796;2023-03-21T16:48:42;15.40;99.90
6174;DHT22;3120;48.796;9.796;2023-03-21T16:51:14;16.30;99.90
6174;DHT22;3120;48.796;9.796;2023-03-21T16:53:42;15.30;99.90
6174;DHT22;3120;48.796;9.796;2023-03-21T16:56:29;16.60;99.90
6174;DHT22;3120;48.796;9.796;2023-03-21T16:58:57;15.10;99.90
6174;DHT22;3120;48.796;9.796;2023-03-21T17:01:25;15.00;99.90
6174;DHT22;3120;48.796;9.796;2023-03-21T17:03:52;14.90;99.90
6174;DHT22;3120;48.796;9.796;2023-03-21T17:06:26;14.90;99.90
6174;DHT22;3120;48.796;9.796;2023-03-21T17:08:53;14.70;99.90
6174;DHT22;3120;48.796;9.796;2023-03-21T17:11:21;16.70;1.00
6174;DHT22;3120;48.796;9.796;2023-03-21T17:13:52;17.30;1.00
6174;DHT22;3120;48.796;9.796;2023-03-21T17:16:21;15.10;1.00
6174;DHT22;3120;48.796;9.796;2023-03-21T17:18:47;14.30;1.00
6174;DHT22;3120;48.796;9.796;2023-03-21T17:21:25;14.40;1.00
6174;DHT22;3120;48.796;9.796;2023-03-21T17:23:51;14.10;1.00
6174;DHT22;3120;48.796;9.796;2023-03-21T17:26:20;14.00;1.00
6174;DHT22;3120;48.796;9.796;2023-03-21T17:28:46;15.70;1.00
6174;DHT22;3120;48.796;9.796;2023-03-21T17:31:16;13.80;1.00
6174;DHT22;3120;48.796;9.796;2023-03-21T17:33:43;13.80;1.00
6174;DHT22;3120;48.796;9.796;2023-03-21T17:36:29;13.70;10.90
6174;DHT22;3120;48.796;9.796;2023-03-21T17:38:55;13.70;1.00
6174;DHT22;3120;48.796;9.796;2023-03-21T17:41:24;13.60;53.30
6174;DHT22;3120;48.796;9.796;2023-03-21T17:43:49;14.50;99.90
6174;DHT22;3120;48.796;9.796;2023-03-21T17:46:19;14.60;99.90
6174;DHT22;3120;48.796;9.796;2023-03-21T17:48:47;15.90;99.90
6174;DHT22;3120;48.796;9.796;2023-03-21T17:51:13;15.90;99.90
6174;DHT22;3120;48.796;9.796;2023-03-21T17:53:43;13.60;99.90
6174;DHT22;3120;48.796;9.796;2023-03-21T17:56:27;13.50;1.00
6174;DHT22;3120;48.796;9.796;2023-03-21T17:58:57;13.50;1.00
6174;DHT22;3120;48.796;9.796;2023-03-21T18:01:24;13.60;1.00
6174;DHT22;3120;48.796;9.796;2023-03-21T18:03:50;13.50;1.00
6174;DHT22;3120;48.796;9.796;2023-03-21T18:06:18;13.40;99.90
6174;DHT22;3120;48.796;9.796;2023-03-21T18:11:14;13.30;99.90
6174;DHT22;3120;48.796;9.796;2023-03-21T18:13:41;13.30;1.00
6174;DHT22;3120;48.796;9.796;2023-03-21T18:16:13;13.20;99.90
6174;DHT22;3120;48.796;9.796;2023-03-21T18:18:39;13.20;99.90
6174;DHT22;3120;48.796;9.796;2023-03-21T18:21:05;13.20;99.90
6174;DHT22;3120;48.796;9.796;2023-03-21T18:23:31;13.20;99.90
6174;DHT22;3120;48.796;9.796;2023-03-21T18:25:58;13.10;1.00
6174;DHT22;3120;48.796;9.796;2023-03-21T18:28:24;13.10;1.00
6174;DHT22;3120;48.796;9.796;2023-03-21T18:30:50;13.70;38.00
6174;DHT22;3120;48.796;9.796;2023-03-21T18:33:16;13.00;1.00
6174;DHT22;3120;48.796;9.796;2023-03-21T18:35:42;13.00;1.00
6174;DHT22;3120;48.796;9.796;2023-03-21T18:38:08;13.00;99.90
6174;DHT22;3120;48.796;9.796;2023-03-21T18:40:34;14.30;99.90